Hlavní strana
METAR-TAF:

METAR-TAF

Letiště :

Kansas City, Missouri, Spojené státy americké

zeměpisná šířka: 39-17-50N, zeměpisná délka: 094-43-50W, výška: 312 m

Aktuální stav počasí

Zpráva byla vytvořena před 30 minutami, v 11:53 UTC
Jižní vítr 8 kt
Teplota 18°C
Vlhkost vzduchu 100%
Tlak 1010 hPa
Viditelnost: 16.1 km
Skoro jasno ve výšce 11000 ft
Oblačno až skoro zataženo ve výšce 15000 ft

METAR: KMCI 041153Z 17008KT 10SM FEW110 BKN150 18/18 A2983 RMK AO2 SLP090 60021 70021 T01830178 10256 20183 51013

Čas: 07:23 (12:23 UTC)

Předpověď počasí

Zpráva byla vytvořena před 1 hodinou a 3 minutami, v 11:20 UTC
Předpověď platná od 04 v 12 UTC do 05 v 12 UTC
Jihojihovýchodní vítr 4 kt
Viditelnost: 10 km
Oblačno až skoro zataženo ve výšce 15000 ft
Od 04 v 1600 UTC
Jižní vítr 7 kt
Viditelnost: 10 km
Skoro jasno ve výšce 20000 ft

TAF: KMCI 041120Z 0412/0512 16004KT P6SM BKN150 FM041600 19007KT P6SM FEW200

Stav a předpovědi počasí z více než 4 000 letišť (zprávy METAR a TAF).

Červené a žluté tečky na mapě představují dostupné meteorologické stanice.

Když kurzor umístíte na tečku, zobrazí se název stanice.

Pak kliknutím zobrazíte stav a předpověď počasí.

Chcete-li změnit mapu, kliknutím na zelené tlačítko se znaménkem +mapu přiblížíte, kliknutím na zelené tlačítko se znaménkem – mapu oddálíte a kliknutím na zelené šipky přejdete na sousední mapy.


METAR-TAF: